createdAt,value
2018-06-12T00:01:57.134Z,25.31
2018-06-12T00:04:30.358Z,25.34
2018-06-12T00:07:03.133Z,25.30
2018-06-12T00:09:41.684Z,25.40
2018-06-12T00:12:15.191Z,25.42
2018-06-12T00:14:47.385Z,25.46
2018-06-12T00:17:19.757Z,25.46
2018-06-12T00:19:51.297Z,25.47
2018-06-12T00:22:25.721Z,25.47
2018-06-12T00:24:58.889Z,25.41
2018-06-12T00:27:36.266Z,25.50
2018-06-12T00:30:10.477Z,25.54
2018-06-12T00:32:46.948Z,25.51
2018-06-12T00:35:19.520Z,25.44
2018-06-12T00:37:52.888Z,25.43
2018-06-12T00:40:25.458Z,25.42
2018-06-12T00:42:57.354Z,25.40
2018-06-12T00:45:29.723Z,25.50
2018-06-12T00:48:03.806Z,25.55
2018-06-12T00:50:36.141Z,25.54
2018-06-12T00:53:07.921Z,25.63
2018-06-12T00:55:42.622Z,25.57
2018-06-12T00:58:14.014Z,25.61
2018-06-12T01:00:46.474Z,25.66
2018-06-12T01:03:17.831Z,25.71
2018-06-12T01:05:49.789Z,25.73
2018-06-12T01:08:21.285Z,25.71
2018-06-12T01:10:53.544Z,25.74
2018-06-12T01:13:24.883Z,25.78
2018-06-12T01:15:56.533Z,25.69
2018-06-12T01:18:26.832Z,25.76
2018-06-12T01:20:58.749Z,25.78
2018-06-12T01:23:31.386Z,25.10
2018-06-12T01:26:03.637Z,25.86
2018-06-12T01:28:35.015Z,25.87
2018-06-12T01:31:06.326Z,25.83
2018-06-12T01:33:38.366Z,25.82
2018-06-12T01:36:11.255Z,25.81
2018-06-12T01:38:42.608Z,25.80
2018-06-12T01:41:13.131Z,25.65
2018-06-12T01:43:44.759Z,25.50
2018-06-12T01:46:16.165Z,25.44
2018-06-12T01:48:49.370Z,25.30
2018-06-12T01:51:20.814Z,25.11
2018-06-12T01:53:52.170Z,25.18
2018-06-12T01:56:23.895Z,25.21
2018-06-12T01:58:55.046Z,25.22
2018-06-12T02:01:27.380Z,25.24
2018-06-12T02:03:59.902Z,25.15
2018-06-12T02:06:31.315Z,25.19
2018-06-12T02:09:06.387Z,25.19
2018-06-12T02:11:38.954Z,25.18
2018-06-12T02:14:10.283Z,25.16
2018-06-12T02:16:43.879Z,25.22
2018-06-12T02:19:16.251Z,25.25
2018-06-12T02:21:48.758Z,25.30
2018-06-12T02:24:19.926Z,25.31
2018-06-12T02:26:50.390Z,25.28
2018-06-12T02:29:22.870Z,25.27
2018-06-12T02:31:54.251Z,25.28
2018-06-12T02:34:25.581Z,25.21
2018-06-12T02:36:57.838Z,25.12
2018-06-12T02:39:30.574Z,25.05
2018-06-12T02:42:01.970Z,25.10
2018-06-12T02:44:34.320Z,25.11
2018-06-12T02:47:09.110Z,25.03
2018-06-12T02:49:42.805Z,25.04
2018-06-12T02:52:15.180Z,25.07
2018-06-12T02:54:46.279Z,25.12
2018-06-12T02:57:20.000Z,25.16
2018-06-12T02:59:50.542Z,25.15
2018-06-12T03:02:22.491Z,25.15
2018-06-12T03:04:55.630Z,25.07
